sensor_id;sensor_type;location;lat;lon;timestamp;P1;durP1;ratioP1;P2;durP2;ratioP2
18973;SDS011;9621;48.690;9.466;2024-02-21T00:01:07;13.50;;;7.90;;
18973;SDS011;9621;48.690;9.466;2024-02-21T00:03:41;14.93;;;7.97;;
18973;SDS011;9621;48.690;9.466;2024-02-21T00:06:08;18.43;;;7.80;;
18973;SDS011;9621;48.690;9.466;2024-02-21T00:08:35;15.53;;;7.60;;
18973;SDS011;9621;48.690;9.466;2024-02-21T00:11:02;16.70;;;7.73;;
18973;SDS011;9621;48.690;9.466;2024-02-21T00:13:29;14.60;;;8.33;;
18973;SDS011;9621;48.690;9.466;2024-02-21T00:15:56;16.03;;;7.73;;
18973;SDS011;9621;48.690;9.466;2024-02-21T00:18:23;15.73;;;7.97;;
18973;SDS011;9621;48.690;9.466;2024-02-21T00:20:51;14.27;;;7.27;;
18973;SDS011;9621;48.690;9.466;2024-02-21T00:23:18;14.37;;;7.77;;
18973;SDS011;9621;48.690;9.466;2024-02-21T00:25:45;19.97;;;7.60;;
18973;SDS011;9621;48.690;9.466;2024-02-21T00:28:12;16.67;;;7.80;;
18973;SDS011;9621;48.690;9.466;2024-02-21T00:30:39;17.63;;;8.20;;
18973;SDS011;9621;48.690;9.466;2024-02-21T00:33:06;15.53;;;7.83;;
18973;SDS011;9621;48.690;9.466;2024-02-21T00:35:33;13.10;;;7.10;;
18973;SDS011;9621;48.690;9.466;2024-02-21T00:38:01;14.20;;;7.73;;
18973;SDS011;9621;48.690;9.466;2024-02-21T00:40:28;17.83;;;8.47;;
18973;SDS011;9621;48.690;9.466;2024-02-21T00:42:55;14.37;;;7.73;;
18973;SDS011;9621;48.690;9.466;2024-02-21T00:45:22;18.33;;;8.17;;
18973;SDS011;9621;48.690;9.466;2024-02-21T00:47:49;17.30;;;7.73;;
18973;SDS011;9621;48.690;9.466;2024-02-21T00:50:16;20.40;;;8.73;;
18973;SDS011;9621;48.690;9.466;2024-02-21T00:52:43;22.40;;;8.50;;
18973;SDS011;9621;48.690;9.466;2024-02-21T00:55:12;13.47;;;7.57;;
18973;SDS011;9621;48.690;9.466;2024-02-21T00:57:39;22.03;;;8.17;;
18973;SDS011;9621;48.690;9.466;2024-02-21T01:00:06;18.83;;;8.43;;
18973;SDS011;9621;48.690;9.466;2024-02-21T01:02:34;19.03;;;8.07;;
18973;SDS011;9621;48.690;9.466;2024-02-21T01:05:01;14.47;;;7.33;;
18973;SDS011;9621;48.690;9.466;2024-02-21T01:07:28;15.70;;;8.10;;
18973;SDS011;9621;48.690;9.466;2024-02-21T01:09:55;16.47;;;7.80;;
18973;SDS011;9621;48.690;9.466;2024-02-21T01:12:24;23.07;;;8.43;;
18973;SDS011;9621;48.690;9.466;2024-02-21T01:14:51;17.57;;;7.83;;
18973;SDS011;9621;48.690;9.466;2024-02-21T01:17:18;15.83;;;7.83;;
18973;SDS011;9621;48.690;9.466;2024-02-21T01:19:45;14.90;;;7.73;;
18973;SDS011;9621;48.690;9.466;2024-02-21T01:22:13;15.90;;;8.23;;
18973;SDS011;9621;48.690;9.466;2024-02-21T01:24:40;18.33;;;9.13;;
18973;SDS011;9621;48.690;9.466;2024-02-21T01:27:06;14.67;;;7.63;;
18973;SDS011;9621;48.690;9.466;2024-02-21T01:29:35;16.07;;;7.63;;
18973;SDS011;9621;48.690;9.466;2024-02-21T01:32:02;14.23;;;7.53;;
18973;SDS011;9621;48.690;9.466;2024-02-21T01:34:29;14.47;;;7.73;;
18973;SDS011;9621;48.690;9.466;2024-02-21T01:36:56;13.70;;;8.10;;
18973;SDS011;9621;48.690;9.466;2024-02-21T01:39:24;18.07;;;7.90;;
18973;SDS011;9621;48.690;9.466;2024-02-21T01:41:51;13.67;;;8.40;;
18973;SDS011;9621;48.690;9.466;2024-02-21T01:44:18;12.80;;;7.73;;
18973;SDS011;9621;48.690;9.466;2024-02-21T01:46:46;13.13;;;8.33;;
18973;SDS011;9621;48.690;9.466;2024-02-21T01:49:13;18.00;;;8.40;;
18973;SDS011;9621;48.690;9.466;2024-02-21T01:51:40;16.17;;;7.83;;
18973;SDS011;9621;48.690;9.466;2024-02-21T01:54:07;12.63;;;7.10;;
18973;SDS011;9621;48.690;9.466;2024-02-21T01:56:36;13.67;;;7.80;;
18973;SDS011;9621;48.690;9.466;2024-02-21T01:59:03;15.67;;;7.97;;
18973;SDS011;9621;48.690;9.466;2024-02-21T02:01:30;18.40;;;8.87;;
18973;SDS011;9621;48.690;9.466;2024-02-21T02:03:58;13.20;;;7.97;;
18973;SDS011;9621;48.690;9.466;2024-02-21T02:06:25;15.83;;;8.20;;
18973;SDS011;9621;48.690;9.466;2024-02-21T02:08:52;19.97;;;9.13;;
18973;SDS011;9621;48.690;9.466;2024-02-21T02:11:20;17.93;;;8.67;;
18973;SDS011;9621;48.690;9.466;2024-02-21T02:13:46;21.10;;;9.27;;
18973;SDS011;9621;48.690;9.466;2024-02-21T02:16:13;11.13;;;7.67;;
18973;SDS011;9621;48.690;9.466;2024-02-21T02:18:40;16.30;;;8.03;;
18973;SDS011;9621;48.690;9.466;2024-02-21T02:21:10;15.70;;;8.53;;
18973;SDS011;9621;48.690;9.466;2024-02-21T02:23:49;16.40;;;7.67;;
18973;SDS011;9621;48.690;9.466;2024-02-21T02:26:16;15.53;;;8.33;;
18973;SDS011;9621;48.690;9.466;2024-02-21T02:28:43;14.00;;;8.03;;
18973;SDS011;9621;48.690;9.466;2024-02-21T02:31:10;14.57;;;8.00;;
18973;SDS011;9621;48.690;9.466;2024-02-21T02:33:37;14.80;;;8.20;;
18973;SDS011;9621;48.690;9.466;2024-02-21T02:36:04;16.93;;;8.33;;
18973;SDS011;9621;48.690;9.466;2024-02-21T02:38:31;16.87;;;9.10;;
18973;SDS011;9621;48.690;9.466;2024-02-21T02:41:00;20.27;;;8.73;;
18973;SDS011;9621;48.690;9.466;2024-02-21T02:43:26;14.97;;;8.40;;
18973;SDS011;9621;48.690;9.466;2024-02-21T02:45:53;18.40;;;8.70;;
18973;SDS011;9621;48.690;9.466;2024-02-21T02:48:20;14.43;;;8.37;;
18973;SDS011;9621;48.690;9.466;2024-02-21T02:50:47;13.03;;;8.00;;
18973;SDS011;9621;48.690;9.466;2024-02-21T02:53:15;16.83;;;7.90;;
18973;SDS011;9621;48.690;9.466;2024-02-21T02:55:42;16.50;;;9.73;;
18973;SDS011;9621;48.690;9.466;2024-02-21T02:58:10;15.83;;;8.13;;
18973;SDS011;9621;48.690;9.466;2024-02-21T03:00:37;15.40;;;7.90;;
18973;SDS011;9621;48.690;9.466;2024-02-21T03:03:04;16.47;;;7.43;;
18973;SDS011;9621;48.690;9.466;2024-02-21T03:05:33;15.37;;;7.63;;
18973;SDS011;9621;48.690;9.466;2024-02-21T03:08:00;19.13;;;7.57;;
18973;SDS011;9621;48.690;9.466;2024-02-21T03:10:27;13.97;;;7.40;;
18973;SDS011;9621;48.690;9.466;2024-02-21T03:12:54;14.43;;;7.77;;
18973;SDS011;9621;48.690;9.466;2024-02-21T03:15:22;15.77;;;8.37;;
18973;SDS011;9621;48.690;9.466;2024-02-21T03:17:49;17.57;;;7.53;;
18973;SDS011;9621;48.690;9.466;2024-02-21T03:20:16;15.13;;;7.80;;
18973;SDS011;9621;48.690;9.466;2024-02-21T03:22:44;14.27;;;7.13;;
18973;SDS011;9621;48.690;9.466;2024-02-21T03:25:11;16.53;;;7.77;;
18973;SDS011;9621;48.690;9.466;2024-02-21T03:27:40;20.80;;;8.17;;
18973;SDS011;9621;48.690;9.466;2024-02-21T03:30:07;17.93;;;7.90;;
18973;SDS011;9621;48.690;9.466;2024-02-21T03:32:36;19.80;;;6.90;;
18973;SDS011;9621;48.690;9.466;2024-02-21T03:35:04;14.80;;;7.60;;
18973;SDS011;9621;48.690;9.466;2024-02-21T03:37:31;17.77;;;7.33;;
18973;SDS011;9621;48.690;9.466;2024-02-21T03:39:58;16.53;;;7.67;;
18973;SDS011;9621;48.690;9.466;2024-02-21T03:42:25;12.20;;;7.03;;
18973;SDS011;9621;48.690;9.466;2024-02-21T03:44:54;13.70;;;7.20;;
18973;SDS011;9621;48.690;9.466;2024-02-21T03:47:21;15.50;;;8.03;;
18973;SDS011;9621;48.690;9.466;2024-02-21T03:49:50;18.47;;;8.10;;
18973;SDS011;9621;48.690;9.466;2024-02-21T03:52:17;15.23;;;7.47;;
18973;SDS011;9621;48.690;9.466;2024-02-21T03:54:44;14.33;;;7.63;;
18973;SDS011;9621;48.690;9.466;2024-02-21T03:57:10;15.83;;;8.17;;
18973;SDS011;9621;48.690;9.466;2024-02-21T03:59:37;12.30;;;7.47;;
18973;SDS011;9621;48.690;9.466;2024-02-21T04:02:05;18.10;;;8.20;;
18973;SDS011;9621;48.690;9.466;2024-02-21T04:04:33;17.27;;;8.27;;
18973;SDS011;9621;48.690;9.466;2024-02-21T04:07:04;14.07;;;8.03;;
18973;SDS011;9621;48.690;9.466;2024-02-21T04:09:32;21.23;;;9.03;;
18973;SDS011;9621;48.690;9.466;2024-02-21T04:12:00;17.97;;;8.63;;
18973;SDS011;9621;48.690;9.466;2024-02-21T04:14:27;18.57;;;9.40;;
18973;SDS011;9621;48.690;9.466;2024-02-21T04:16:54;23.30;;;8.67;;
18973;SDS011;9621;48.690;9.466;2024-02-21T04:19:21;16.37;;;8.97;;
18973;SDS011;9621;48.690;9.466;2024-02-21T04:21:48;16.53;;;9.00;;
18973;SDS011;9621;48.690;9.466;2024-02-21T04:24:16;15.10;;;8.50;;
18973;SDS011;9621;48.690;9.466;2024-02-21T04:26:43;19.80;;;9.13;;
18973;SDS011;9621;48.690;9.466;2024-02-21T04:29:10;16.20;;;8.80;;
18973;SDS011;9621;48.690;9.466;2024-02-21T04:31:37;17.17;;;9.03;;
18973;SDS011;9621;48.690;9.466;2024-02-21T04:34:05;22.60;;;9.87;;
18973;SDS011;9621;48.690;9.466;2024-02-21T04:36:32;22.87;;;9.30;;
18973;SDS011;9621;48.690;9.466;2024-02-21T04:38:59;18.03;;;8.80;;
18973;SDS011;9621;48.690;9.466;2024-02-21T04:41:27;18.47;;;8.50;;
18973;SDS011;9621;48.690;9.466;2024-02-21T04:43:54;20.83;;;8.87;;
18973;SDS011;9621;48.690;9.466;2024-02-21T04:46:21;22.17;;;9.37;;
18973;SDS011;9621;48.690;9.466;2024-02-21T04:48:47;18.27;;;7.80;;
18973;SDS011;9621;48.690;9.466;2024-02-21T04:51:14;16.47;;;8.00;;
18973;SDS011;9621;48.690;9.466;2024-02-21T04:53:41;12.50;;;7.97;;
18973;SDS011;9621;48.690;9.466;2024-02-21T04:56:08;18.50;;;7.73;;
18973;SDS011;9621;48.690;9.466;2024-02-21T04:58:38;16.43;;;7.97;;
18973;SDS011;9621;48.690;9.466;2024-02-21T05:01:06;15.40;;;7.63;;
18973;SDS011;9621;48.690;9.466;2024-02-21T05:03:33;18.90;;;8.80;;
18973;SDS011;9621;48.690;9.466;2024-02-21T05:06:00;16.60;;;8.40;;
18973;SDS011;9621;48.690;9.466;2024-02-21T05:08:26;14.30;;;8.43;;
18973;SDS011;9621;48.690;9.466;2024-02-21T05:10:53;20.53;;;9.40;;
18973;SDS011;9621;48.690;9.466;2024-02-21T05:13:20;15.67;;;8.30;;
18973;SDS011;9621;48.690;9.466;2024-02-21T05:15:49;13.23;;;7.93;;
18973;SDS011;9621;48.690;9.466;2024-02-21T05:18:16;14.37;;;8.57;;
18973;SDS011;9621;48.690;9.466;2024-02-21T05:20:42;14.37;;;8.03;;
18973;SDS011;9621;48.690;9.466;2024-02-21T05:23:09;19.23;;;8.10;;
18973;SDS011;9621;48.690;9.466;2024-02-21T05:25:36;16.03;;;8.30;;
18973;SDS011;9621;48.690;9.466;2024-02-21T05:28:04;18.77;;;8.70;;
18973;SDS011;9621;48.690;9.466;2024-02-21T05:30:31;21.87;;;9.17;;
18973;SDS011;9621;48.690;9.466;2024-02-21T05:33:03;16.90;;;9.33;;
18973;SDS011;9621;48.690;9.466;2024-02-21T05:35:31;23.97;;;9.37;;
18973;SDS011;9621;48.690;9.466;2024-02-21T05:37:58;17.10;;;9.43;;
18973;SDS011;9621;48.690;9.466;2024-02-21T05:40:25;18.63;;;9.00;;
18973;SDS011;9621;48.690;9.466;2024-02-21T05:42:52;19.00;;;9.73;;
18973;SDS011;9621;48.690;9.466;2024-02-21T05:45:19;19.97;;;10.07;;
18973;SDS011;9621;48.690;9.466;2024-02-21T05:47:46;25.80;;;11.23;;
18973;SDS011;9621;48.690;9.466;2024-02-21T05:50:14;20.77;;;10.20;;
18973;SDS011;9621;48.690;9.466;2024-02-21T05:52:42;23.97;;;11.40;;
18973;SDS011;9621;48.690;9.466;2024-02-21T05:55:09;24.10;;;10.80;;
18973;SDS011;9621;48.690;9.466;2024-02-21T05:57:36;41.00;;;16.60;;
18973;SDS011;9621;48.690;9.466;2024-02-21T06:00:03;25.37;;;11.73;;
18973;SDS011;9621;48.690;9.466;2024-02-21T06:02:31;27.97;;;13.83;;
18973;SDS011;9621;48.690;9.466;2024-02-21T06:04:58;23.97;;;12.77;;
18973;SDS011;9621;48.690;9.466;2024-02-21T06:07:26;17.53;;;10.90;;
18973;SDS011;9621;48.690;9.466;2024-02-21T06:09:53;20.07;;;10.03;;
18973;SDS011;9621;48.690;9.466;2024-02-21T06:12:20;19.23;;;9.47;;
18973;SDS011;9621;48.690;9.466;2024-02-21T06:14:47;20.83;;;9.03;;
18973;SDS011;9621;48.690;9.466;2024-02-21T06:17:14;22.10;;;9.37;;
18973;SDS011;9621;48.690;9.466;2024-02-21T06:19:42;18.53;;;9.27;;
18973;SDS011;9621;48.690;9.466;2024-02-21T06:22:09;17.67;;;9.57;;
18973;SDS011;9621;48.690;9.466;2024-02-21T06:24:38;20.70;;;9.23;;
18973;SDS011;9621;48.690;9.466;2024-02-21T06:27:05;18.17;;;9.67;;
18973;SDS011;9621;48.690;9.466;2024-02-21T06:29:33;15.30;;;9.17;;
18973;SDS011;9621;48.690;9.466;2024-02-21T06:32:00;14.73;;;8.07;;
18973;SDS011;9621;48.690;9.466;2024-02-21T06:34:27;17.43;;;8.17;;
18973;SDS011;9621;48.690;9.466;2024-02-21T06:36:54;17.93;;;8.73;;
18973;SDS011;9621;48.690;9.466;2024-02-21T06:39:21;16.20;;;9.23;;
18973;SDS011;9621;48.690;9.466;2024-02-21T06:41:49;17.97;;;9.03;;
18973;SDS011;9621;48.690;9.466;2024-02-21T06:44:20;20.97;;;9.87;;
18973;SDS011;9621;48.690;9.466;2024-02-21T06:46:48;19.23;;;10.33;;
18973;SDS011;9621;48.690;9.466;2024-02-21T06:49:14;20.50;;;10.50;;
18973;SDS011;9621;48.690;9.466;2024-02-21T06:51:41;18.10;;;10.03;;
18973;SDS011;9621;48.690;9.466;2024-02-21T06:54:08;19.97;;;9.43;;
18973;SDS011;9621;48.690;9.466;2024-02-21T06:56:36;23.20;;;9.30;;
18973;SDS011;9621;48.690;9.466;2024-02-21T06:59:05;19.03;;;8.80;;
18973;SDS011;9621;48.690;9.466;2024-02-21T07:01:32;16.23;;;10.27;;
18973;SDS011;9621;48.690;9.466;2024-02-21T07:03:59;14.97;;;8.97;;
18973;SDS011;9621;48.690;9.466;2024-02-21T07:06:25;16.77;;;9.37;;
18973;SDS011;9621;48.690;9.466;2024-02-21T07:08:53;15.87;;;8.03;;
18973;SDS011;9621;48.690;9.466;2024-02-21T07:11:19;19.00;;;8.47;;
18973;SDS011;9621;48.690;9.466;2024-02-21T07:13:46;18.70;;;9.40;;
18973;SDS011;9621;48.690;9.466;2024-02-21T07:16:14;11.00;;;7.73;;
18973;SDS011;9621;48.690;9.466;2024-02-21T07:18:41;14.27;;;7.80;;
18973;SDS011;9621;48.690;9.466;2024-02-21T07:21:10;12.63;;;6.77;;
18973;SDS011;9621;48.690;9.466;2024-02-21T07:23:40;13.63;;;6.93;;
18973;SDS011;9621;48.690;9.466;2024-02-21T07:26:07;11.23;;;7.10;;
18973;SDS011;9621;48.690;9.466;2024-02-21T07:28:34;13.27;;;7.73;;
18973;SDS011;9621;48.690;9.466;2024-02-21T07:31:00;17.93;;;7.67;;
18973;SDS011;9621;48.690;9.466;2024-02-21T07:33:28;16.53;;;7.80;;
18973;SDS011;9621;48.690;9.466;2024-02-21T07:35:56;14.27;;;7.17;;
18973;SDS011;9621;48.690;9.466;2024-02-21T07:38:23;16.23;;;7.27;;
18973;SDS011;9621;48.690;9.466;2024-02-21T07:40:50;13.73;;;6.97;;
18973;SDS011;9621;48.690;9.466;2024-02-21T07:43:17;11.83;;;7.00;;
18973;SDS011;9621;48.690;9.466;2024-02-21T07:45:47;13.83;;;7.30;;
18973;SDS011;9621;48.690;9.466;2024-02-21T07:48:14;13.67;;;7.27;;
18973;SDS011;9621;48.690;9.466;2024-02-21T07:50:42;14.10;;;7.13;;
18973;SDS011;9621;48.690;9.466;2024-02-21T07:53:09;13.07;;;7.17;;
18973;SDS011;9621;48.690;9.466;2024-02-21T07:55:36;14.97;;;9.40;;
18973;SDS011;9621;48.690;9.466;2024-02-21T07:58:03;17.30;;;8.87;;
18973;SDS011;9621;48.690;9.466;2024-02-21T08:00:30;17.53;;;9.73;;
18973;SDS011;9621;48.690;9.466;2024-02-21T08:02:57;21.03;;;8.93;;
18973;SDS011;9621;48.690;9.466;2024-02-21T08:05:23;15.80;;;8.87;;
18973;SDS011;9621;48.690;9.466;2024-02-21T08:07:52;17.40;;;8.97;;
18973;SDS011;9621;48.690;9.466;2024-02-21T08:10:19;17.30;;;8.47;;
18973;SDS011;9621;48.690;9.466;2024-02-21T08:12:46;13.90;;;8.70;;
18973;SDS011;9621;48.690;9.466;2024-02-21T08:15:13;16.47;;;7.93;;
18973;SDS011;9621;48.690;9.466;2024-02-21T08:17:42;16.37;;;8.50;;
18973;SDS011;9621;48.690;9.466;2024-02-21T08:20:11;15.30;;;7.50;;
18973;SDS011;9621;48.690;9.466;2024-02-21T08:22:38;13.55;;;8.00;;
18973;SDS011;9621;48.690;9.466;2024-02-21T08:25:07;13.43;;;7.63;;
18973;SDS011;9621;48.690;9.466;2024-02-21T08:27:34;16.42;;;7.78;;
18973;SDS011;9621;48.690;9.466;2024-02-21T08:30:01;14.75;;;7.30;;
18973;SDS011;9621;48.690;9.466;2024-02-21T08:32:28;11.10;;;6.68;;
18973;SDS011;9621;48.690;9.466;2024-02-21T08:34:55;12.50;;;6.88;;
18973;SDS011;9621;48.690;9.466;2024-02-21T08:37:22;11.70;;;7.10;;
18973;SDS011;9621;48.690;9.466;2024-02-21T08:39:49;14.38;;;7.22;;
18973;SDS011;9621;48.690;9.466;2024-02-21T08:42:17;11.35;;;6.35;;
18973;SDS011;9621;48.690;9.466;2024-02-21T08:44:45;12.50;;;7.15;;
18973;SDS011;9621;48.690;9.466;2024-02-21T08:47:11;10.93;;;6.32;;
18973;SDS011;9621;48.690;9.466;2024-02-21T08:49:38;16.90;;;6.93;;
18973;SDS011;9621;48.690;9.466;2024-02-21T08:52:05;13.10;;;6.65;;
18973;SDS011;9621;48.690;9.466;2024-02-21T08:54:32;14.68;;;5.60;;
18973;SDS011;9621;48.690;9.466;2024-02-21T08:56:59;10.20;;;5.65;;
18973;SDS011;9621;48.690;9.466;2024-02-21T08:59:27;8.45;;;5.70;;
18973;SDS011;9621;48.690;9.466;2024-02-21T09:01:54;9.35;;;4.80;;
18973;SDS011;9621;48.690;9.466;2024-02-21T09:04:21;11.80;;;4.45;;
18973;SDS011;9621;48.690;9.466;2024-02-21T09:06:48;10.43;;;4.57;;
18973;SDS011;9621;48.690;9.466;2024-02-21T09:09:17;12.88;;;4.25;;
18973;SDS011;9621;48.690;9.466;2024-02-21T09:11:45;14.53;;;4.90;;
18973;SDS011;9621;48.690;9.466;2024-02-21T09:14:11;9.38;;;4.13;;
18973;SDS011;9621;48.690;9.466;2024-02-21T09:16:40;9.85;;;4.03;;
18973;SDS011;9621;48.690;9.466;2024-02-21T09:19:07;9.20;;;3.92;;
18973;SDS011;9621;48.690;9.466;2024-02-21T09:21:36;10.40;;;4.43;;
18973;SDS011;9621;48.690;9.466;2024-02-21T09:24:03;13.48;;;4.53;;
18973;SDS011;9621;48.690;9.466;2024-02-21T09:26:31;15.70;;;4.63;;
18973;SDS011;9621;48.690;9.466;2024-02-21T09:28:58;19.67;;;4.68;;
18973;SDS011;9621;48.690;9.466;2024-02-21T09:31:25;17.30;;;5.18;;
18973;SDS011;9621;48.690;9.466;2024-02-21T09:33:53;9.98;;;4.28;;
18973;SDS011;9621;48.690;9.466;2024-02-21T09:36:20;8.73;;;4.28;;
18973;SDS011;9621;48.690;9.466;2024-02-21T09:38:47;9.63;;;4.05;;
18973;SDS011;9621;48.690;9.466;2024-02-21T09:41:15;6.78;;;3.63;;
18973;SDS011;9621;48.690;9.466;2024-02-21T09:43:43;11.23;;;4.85;;
18973;SDS011;9621;48.690;9.466;2024-02-21T09:46:13;12.75;;;4.85;;
18973;SDS011;9621;48.690;9.466;2024-02-21T09:48:45;10.98;;;5.00;;
18973;SDS011;9621;48.690;9.466;2024-02-21T09:51:23;12.32;;;4.75;;
18973;SDS011;9621;48.690;9.466;2024-02-21T09:53:52;8.77;;;4.60;;
18973;SDS011;9621;48.690;9.466;2024-02-21T09:56:20;10.07;;;5.18;;
18973;SDS011;9621;48.690;9.466;2024-02-21T09:58:47;9.00;;;5.13;;
18973;SDS011;9621;48.690;9.466;2024-02-21T10:01:14;9.23;;;4.82;;
18973;SDS011;9621;48.690;9.466;2024-02-21T10:03:41;11.27;;;4.90;;
18973;SDS011;9621;48.690;9.466;2024-02-21T10:06:09;11.98;;;5.07;;
18973;SDS011;9621;48.690;9.466;2024-02-21T10:08:37;9.57;;;5.40;;
18973;SDS011;9621;48.690;9.466;2024-02-21T10:11:04;10.63;;;4.70;;
18973;SDS011;9621;48.690;9.466;2024-02-21T10:13:35;11.43;;;4.97;;
18973;SDS011;9621;48.690;9.466;2024-02-21T10:16:03;13.30;;;5.15;;
18973;SDS011;9621;48.690;9.466;2024-02-21T10:18:31;10.73;;;5.30;;
18973;SDS011;9621;48.690;9.466;2024-02-21T10:21:02;8.98;;;3.67;;
18973;SDS011;9621;48.690;9.466;2024-02-21T10:23:41;9.43;;;3.63;;
18973;SDS011;9621;48.690;9.466;2024-02-21T10:26:09;8.43;;;2.97;;
18973;SDS011;9621;48.690;9.466;2024-02-21T10:28:36;8.13;;;3.20;;
18973;SDS011;9621;48.690;9.466;2024-02-21T10:31:07;7.70;;;3.00;;
18973;SDS011;9621;48.690;9.466;2024-02-21T10:33:34;7.82;;;2.40;;
18973;SDS011;9621;48.690;9.466;2024-02-21T10:36:08;5.47;;;2.42;;
18973;SDS011;9621;48.690;9.466;2024-02-21T10:38:36;9.45;;;2.83;;
18973;SDS011;9621;48.690;9.466;2024-02-21T10:41:05;5.93;;;2.63;;
18973;SDS011;9621;48.690;9.466;2024-02-21T10:43:35;4.70;;;2.40;;
18973;SDS011;9621;48.690;9.466;2024-02-21T10:46:06;6.10;;;2.58;;
18973;SDS011;9621;48.690;9.466;2024-02-21T10:48:38;7.25;;;3.00;;
18973;SDS011;9621;48.690;9.466;2024-02-21T10:51:13;7.05;;;2.20;;
18973;SDS011;9621;48.690;9.466;2024-02-21T10:53:44;4.78;;;2.10;;
18973;SDS011;9621;48.690;9.466;2024-02-21T10:56:25;5.55;;;2.25;;
18973;SDS011;9621;48.690;9.466;2024-02-21T10:58:54;7.18;;;2.40;;
18973;SDS011;9621;48.690;9.466;2024-02-21T11:01:24;5.15;;;2.20;;
18973;SDS011;9621;48.690;9.466;2024-02-21T11:03:57;3.20;;;2.05;;
18973;SDS011;9621;48.690;9.466;2024-02-21T11:06:27;5.50;;;2.53;;
18973;SDS011;9621;48.690;9.466;2024-02-21T11:09:01;9.90;;;2.47;;
18973;SDS011;9621;48.690;9.466;2024-02-21T11:11:31;4.80;;;2.15;;
18973;SDS011;9621;48.690;9.466;2024-02-21T11:14:06;4.85;;;2.30;;
18973;SDS011;9621;48.690;9.466;2024-02-21T11:16:37;5.40;;;2.30;;
18973;SDS011;9621;48.690;9.466;2024-02-21T11:19:05;6.25;;;1.95;;
18973;SDS011;9621;48.690;9.466;2024-02-21T11:21:33;10.48;;;2.63;;
18973;SDS011;9621;48.690;9.466;2024-02-21T11:24:01;4.35;;;1.80;;
18973;SDS011;9621;48.690;9.466;2024-02-21T11:26:29;7.78;;;2.00;;
18973;SDS011;9621;48.690;9.466;2024-02-21T11:28:57;5.75;;;2.20;;
18973;SDS011;9621;48.690;9.466;2024-02-21T11:31:25;7.10;;;2.30;;
18973;SDS011;9621;48.690;9.466;2024-02-21T11:33:53;5.47;;;2.03;;
18973;SDS011;9621;48.690;9.466;2024-02-21T11:36:24;6.22;;;2.45;;
18973;SDS011;9621;48.690;9.466;2024-02-21T11:38:52;5.93;;;2.65;;
18973;SDS011;9621;48.690;9.466;2024-02-21T11:41:19;12.27;;;3.85;;
18973;SDS011;9621;48.690;9.466;2024-02-21T11:43:48;5.60;;;2.25;;
18973;SDS011;9621;48.690;9.466;2024-02-21T11:46:16;4.90;;;1.98;;
18973;SDS011;9621;48.690;9.466;2024-02-21T11:48:44;5.70;;;2.00;;
18973;SDS011;9621;48.690;9.466;2024-02-21T11:51:20;6.82;;;1.85;;
18973;SDS011;9621;48.690;9.466;2024-02-21T11:53:50;6.75;;;1.85;;
18973;SDS011;9621;48.690;9.466;2024-02-21T11:56:17;9.88;;;2.15;;
18973;SDS011;9621;48.690;9.466;2024-02-21T11:58:45;4.10;;;2.00;;
18973;SDS011;9621;48.690;9.466;2024-02-21T12:01:14;5.13;;;2.28;;
18973;SDS011;9621;48.690;9.466;2024-02-21T12:03:41;5.40;;;2.05;;
18973;SDS011;9621;48.690;9.466;2024-02-21T12:06:14;5.93;;;1.88;;
18973;SDS011;9621;48.690;9.466;2024-02-21T12:08:45;5.10;;;2.00;;
18973;SDS011;9621;48.690;9.466;2024-02-21T12:11:21;3.88;;;1.88;;
18973;SDS011;9621;48.690;9.466;2024-02-21T12:13:58;5.05;;;2.03;;
18973;SDS011;9621;48.690;9.466;2024-02-21T12:16:28;5.20;;;1.80;;
18973;SDS011;9621;48.690;9.466;2024-02-21T12:18:56;4.78;;;1.88;;
18973;SDS011;9621;48.690;9.466;2024-02-21T12:21:23;4.53;;;2.08;;
18973;SDS011;9621;48.690;9.466;2024-02-21T12:23:53;2.40;;;1.50;;
18973;SDS011;9621;48.690;9.466;2024-02-21T12:26:20;4.82;;;2.00;;
18973;SDS011;9621;48.690;9.466;2024-02-21T12:28:47;5.72;;;1.92;;
18973;SDS011;9621;48.690;9.466;2024-02-21T12:31:14;4.65;;;1.98;;
18973;SDS011;9621;48.690;9.466;2024-02-21T12:33:43;5.60;;;2.22;;
18973;SDS011;9621;48.690;9.466;2024-02-21T12:36:10;5.13;;;1.83;;
18973;SDS011;9621;48.690;9.466;2024-02-21T12:38:37;5.78;;;2.10;;
18973;SDS011;9621;48.690;9.466;2024-02-21T12:41:04;4.82;;;2.08;;
18973;SDS011;9621;48.690;9.466;2024-02-21T12:43:32;6.10;;;1.75;;
18973;SDS011;9621;48.690;9.466;2024-02-21T12:45:59;3.47;;;1.83;;
18973;SDS011;9621;48.690;9.466;2024-02-21T12:48:26;5.57;;;1.88;;
18973;SDS011;9621;48.690;9.466;2024-02-21T12:50:55;7.28;;;2.58;;
18973;SDS011;9621;48.690;9.466;2024-02-21T12:53:22;3.97;;;2.05;;
18973;SDS011;9621;48.690;9.466;2024-02-21T12:55:49;4.18;;;1.83;;
18973;SDS011;9621;48.690;9.466;2024-02-21T12:58:16;6.20;;;2.08;;
18973;SDS011;9621;48.690;9.466;2024-02-21T13:00:43;4.75;;;1.90;;
18973;SDS011;9621;48.690;9.466;2024-02-21T13:03:11;5.57;;;1.80;;
18973;SDS011;9621;48.690;9.466;2024-02-21T13:05:38;6.15;;;2.05;;
18973;SDS011;9621;48.690;9.466;2024-02-21T13:08:08;5.03;;;1.98;;
18973;SDS011;9621;48.690;9.466;2024-02-21T13:10:37;4.47;;;1.83;;
18973;SDS011;9621;48.690;9.466;2024-02-21T13:13:03;3.60;;;1.85;;
18973;SDS011;9621;48.690;9.466;2024-02-21T13:15:30;4.80;;;2.22;;
18973;SDS011;9621;48.690;9.466;2024-02-21T13:17:57;9.57;;;2.63;;
18973;SDS011;9621;48.690;9.466;2024-02-21T13:20:24;3.85;;;2.15;;
18973;SDS011;9621;48.690;9.466;2024-02-21T13:22:52;5.97;;;2.35;;
18973;SDS011;9621;48.690;9.466;2024-02-21T13:25:20;7.53;;;2.50;;
18973;SDS011;9621;48.690;9.466;2024-02-21T13:27:47;5.10;;;2.10;;
18973;SDS011;9621;48.690;9.466;2024-02-21T13:30:14;6.47;;;2.40;;
18973;SDS011;9621;48.690;9.466;2024-02-21T13:32:43;6.07;;;2.08;;
18973;SDS011;9621;48.690;9.466;2024-02-21T13:35:12;4.80;;;2.03;;
18973;SDS011;9621;48.690;9.466;2024-02-21T13:37:40;3.90;;;2.08;;
18973;SDS011;9621;48.690;9.466;2024-02-21T13:40:07;6.45;;;2.53;;
18973;SDS011;9621;48.690;9.466;2024-02-21T13:42:36;5.78;;;2.30;;
18973;SDS011;9621;48.690;9.466;2024-02-21T13:45:04;3.85;;;2.17;;
18973;SDS011;9621;48.690;9.466;2024-02-21T13:47:32;4.97;;;2.30;;
18973;SDS011;9621;48.690;9.466;2024-02-21T13:49:59;6.50;;;2.03;;
18973;SDS011;9621;48.690;9.466;2024-02-21T13:52:26;4.38;;;1.83;;
18973;SDS011;9621;48.690;9.466;2024-02-21T13:54:53;3.90;;;1.90;;
18973;SDS011;9621;48.690;9.466;2024-02-21T13:57:20;4.93;;;2.17;;
18973;SDS011;9621;48.690;9.466;2024-02-21T13:59:48;9.10;;;2.65;;
18973;SDS011;9621;48.690;9.466;2024-02-21T14:02:16;6.20;;;2.53;;
18973;SDS011;9621;48.690;9.466;2024-02-21T14:04:42;2.97;;;1.90;;
18973;SDS011;9621;48.690;9.466;2024-02-21T14:07:09;6.57;;;2.60;;
18973;SDS011;9621;48.690;9.466;2024-02-21T14:09:36;6.60;;;2.22;;
18973;SDS011;9621;48.690;9.466;2024-02-21T14:12:03;4.40;;;2.00;;
18973;SDS011;9621;48.690;9.466;2024-02-21T14:14:33;6.13;;;2.60;;
18973;SDS011;9621;48.690;9.466;2024-02-21T14:17:02;3.90;;;2.13;;
18973;SDS011;9621;48.690;9.466;2024-02-21T14:19:29;4.13;;;2.38;;
18973;SDS011;9621;48.690;9.466;2024-02-21T14:21:56;5.30;;;2.50;;
18973;SDS011;9621;48.690;9.466;2024-02-21T14:24:23;4.45;;;2.38;;
18973;SDS011;9621;48.690;9.466;2024-02-21T14:26:49;4.80;;;2.00;;
18973;SDS011;9621;48.690;9.466;2024-02-21T14:29:16;5.65;;;2.55;;
18973;SDS011;9621;48.690;9.466;2024-02-21T14:31:43;5.70;;;2.80;;
18973;SDS011;9621;48.690;9.466;2024-02-21T14:34:11;5.72;;;2.20;;
18973;SDS011;9621;48.690;9.466;2024-02-21T14:36:38;5.45;;;2.47;;
18973;SDS011;9621;48.690;9.466;2024-02-21T14:39:06;8.05;;;2.45;;
18973;SDS011;9621;48.690;9.466;2024-02-21T14:41:33;4.72;;;2.00;;
18973;SDS011;9621;48.690;9.466;2024-02-21T14:44:01;6.53;;;2.35;;
18973;SDS011;9621;48.690;9.466;2024-02-21T14:46:29;7.70;;;2.45;;
18973;SDS011;9621;48.690;9.466;2024-02-21T14:48:55;7.13;;;2.97;;
18973;SDS011;9621;48.690;9.466;2024-02-21T14:51:24;7.50;;;2.47;;
18973;SDS011;9621;48.690;9.466;2024-02-21T14:53:51;5.53;;;2.63;;
18973;SDS011;9621;48.690;9.466;2024-02-21T14:56:19;4.82;;;2.13;;